sensor_id;sensor_type;location;lat;lon;timestamp;P1;durP1;ratioP1;P2;durP2;ratioP2
6862;SDS011;3470;48.738;9.616;2023-12-04T12:54:37;20.07;;;14.17;;
6862;SDS011;3470;48.738;9.616;2023-12-04T12:57:04;23.00;;;14.13;;
6862;SDS011;3470;48.738;9.616;2023-12-04T12:59:30;21.80;;;13.97;;
6862;SDS011;3470;48.738;9.616;2023-12-04T13:01:56;20.13;;;14.00;;
6862;SDS011;3470;48.738;9.616;2023-12-04T13:04:25;19.70;;;13.00;;
6862;SDS011;3470;48.738;9.616;2023-12-04T13:06:51;18.47;;;12.97;;
6862;SDS011;3470;48.738;9.616;2023-12-04T13:09:16;15.87;;;12.17;;
6862;SDS011;3470;48.738;9.616;2023-12-04T17:55:10;20.43;;;12.03;;
6862;SDS011;3470;48.738;9.616;2023-12-04T17:57:36;19.87;;;11.77;;
6862;SDS011;3470;48.738;9.616;2023-12-04T18:00:03;18.30;;;11.50;;
6862;SDS011;3470;48.738;9.616;2023-12-04T18:02:37;19.47;;;12.70;;
6862;SDS011;3470;48.738;9.616;2023-12-04T18:05:03;18.33;;;12.03;;
6862;SDS011;3470;48.738;9.616;2023-12-04T18:07:29;20.27;;;12.33;;
6862;SDS011;3470;48.738;9.616;2023-12-04T18:09:54;18.07;;;11.77;;
6862;SDS011;3470;48.738;9.616;2023-12-04T18:12:20;17.00;;;11.67;;
6862;SDS011;3470;48.738;9.616;2023-12-04T18:14:45;20.33;;;12.43;;
6862;SDS011;3470;48.738;9.616;2023-12-04T18:17:15;20.83;;;12.67;;
6862;SDS011;3470;48.738;9.616;2023-12-04T18:19:41;18.53;;;11.60;;
6862;SDS011;3470;48.738;9.616;2023-12-04T18:22:06;19.10;;;12.30;;
6862;SDS011;3470;48.738;9.616;2023-12-04T18:24:32;15.70;;;10.80;;
6862;SDS011;3470;48.738;9.616;2023-12-04T18:26:57;18.57;;;11.70;;
6862;SDS011;3470;48.738;9.616;2023-12-04T18:29:24;17.80;;;11.80;;
6862;SDS011;3470;48.738;9.616;2023-12-04T18:31:50;19.90;;;11.57;;
6862;SDS011;3470;48.738;9.616;2023-12-04T18:34:15;19.37;;;12.20;;
6862;SDS011;3470;48.738;9.616;2023-12-04T18:36:42;18.17;;;11.53;;
6862;SDS011;3470;48.738;9.616;2023-12-04T18:39:09;21.17;;;11.90;;
6862;SDS011;3470;48.738;9.616;2023-12-04T18:41:39;21.70;;;12.47;;
6862;SDS011;3470;48.738;9.616;2023-12-04T18:44:05;21.53;;;12.17;;
6862;SDS011;3470;48.738;9.616;2023-12-04T18:46:31;20.83;;;11.67;;
6862;SDS011;3470;48.738;9.616;2023-12-04T18:48:58;21.53;;;12.57;;
6862;SDS011;3470;48.738;9.616;2023-12-04T18:51:24;22.00;;;12.37;;
6862;SDS011;3470;48.738;9.616;2023-12-04T18:53:50;19.60;;;12.13;;
6862;SDS011;3470;48.738;9.616;2023-12-04T18:56:16;17.83;;;11.13;;
6862;SDS011;3470;48.738;9.616;2023-12-04T18:58:42;17.47;;;11.03;;
6862;SDS011;3470;48.738;9.616;2023-12-04T19:01:07;20.57;;;12.33;;
6862;SDS011;3470;48.738;9.616;2023-12-04T19:03:33;20.80;;;12.13;;
6862;SDS011;3470;48.738;9.616;2023-12-04T19:05:59;18.50;;;11.70;;
6862;SDS011;3470;48.738;9.616;2023-12-04T19:08:24;22.20;;;12.17;;
6862;SDS011;3470;48.738;9.616;2023-12-04T19:10:50;22.67;;;12.70;;
6862;SDS011;3470;48.738;9.616;2023-12-04T19:13:16;35.53;;;15.07;;
6862;SDS011;3470;48.738;9.616;2023-12-04T19:15:41;38.63;;;17.13;;
6862;SDS011;3470;48.738;9.616;2023-12-04T19:18:07;31.57;;;14.77;;
6862;SDS011;3470;48.738;9.616;2023-12-04T19:20:33;26.93;;;14.77;;
6862;SDS011;3470;48.738;9.616;2023-12-04T19:22:58;23.83;;;12.87;;
6862;SDS011;3470;48.738;9.616;2023-12-04T19:25:25;20.23;;;11.20;;
6862;SDS011;3470;48.738;9.616;2023-12-04T19:27:59;19.43;;;11.80;;
6862;SDS011;3470;48.738;9.616;2023-12-04T19:30:26;17.30;;;11.00;;
6862;SDS011;3470;48.738;9.616;2023-12-04T19:32:51;17.67;;;11.10;;
6862;SDS011;3470;48.738;9.616;2023-12-04T19:35:17;19.37;;;11.47;;
6862;SDS011;3470;48.738;9.616;2023-12-04T19:37:43;17.43;;;11.77;;
6862;SDS011;3470;48.738;9.616;2023-12-04T19:40:08;19.37;;;12.13;;
6862;SDS011;3470;48.738;9.616;2023-12-04T19:42:37;17.77;;;11.13;;
6862;SDS011;3470;48.738;9.616;2023-12-04T19:45:03;18.70;;;11.77;;
6862;SDS011;3470;48.738;9.616;2023-12-04T19:47:29;19.10;;;11.37;;
6862;SDS011;3470;48.738;9.616;2023-12-04T19:49:55;18.33;;;12.17;;
6862;SDS011;3470;48.738;9.616;2023-12-04T19:52:21;19.07;;;11.67;;
6862;SDS011;3470;48.738;9.616;2023-12-04T19:54:47;17.80;;;11.97;;
6862;SDS011;3470;48.738;9.616;2023-12-04T19:57:13;18.17;;;12.67;;
6862;SDS011;3470;48.738;9.616;2023-12-04T19:59:39;16.73;;;11.27;;
6862;SDS011;3470;48.738;9.616;2023-12-04T20:02:05;16.40;;;11.60;;
6862;SDS011;3470;48.738;9.616;2023-12-04T20:04:30;18.50;;;12.67;;
6862;SDS011;3470;48.738;9.616;2023-12-04T20:06:56;18.77;;;12.40;;
6862;SDS011;3470;48.738;9.616;2023-12-04T20:09:23;18.40;;;12.63;;
6862;SDS011;3470;48.738;9.616;2023-12-04T20:11:49;20.23;;;13.27;;
6862;SDS011;3470;48.738;9.616;2023-12-04T20:14:15;21.10;;;12.93;;
6862;SDS011;3470;48.738;9.616;2023-12-04T20:16:41;19.97;;;12.73;;
6862;SDS011;3470;48.738;9.616;2023-12-04T20:19:11;21.20;;;13.57;;
6862;SDS011;3470;48.738;9.616;2023-12-04T20:21:37;19.00;;;12.07;;
6862;SDS011;3470;48.738;9.616;2023-12-04T20:24:02;18.77;;;12.53;;
6862;SDS011;3470;48.738;9.616;2023-12-04T20:26:28;19.57;;;12.70;;
6862;SDS011;3470;48.738;9.616;2023-12-04T20:28:54;19.83;;;13.00;;
6862;SDS011;3470;48.738;9.616;2023-12-04T20:31:19;21.77;;;13.60;;
6862;SDS011;3470;48.738;9.616;2023-12-04T20:33:45;19.73;;;12.40;;
6862;SDS011;3470;48.738;9.616;2023-12-04T20:36:11;20.40;;;13.90;;
6862;SDS011;3470;48.738;9.616;2023-12-04T20:38:37;22.33;;;13.83;;
6862;SDS011;3470;48.738;9.616;2023-12-04T20:41:03;21.63;;;13.37;;
6862;SDS011;3470;48.738;9.616;2023-12-04T20:43:29;20.97;;;14.03;;
6862;SDS011;3470;48.738;9.616;2023-12-04T20:45:57;18.87;;;13.67;;
6862;SDS011;3470;48.738;9.616;2023-12-04T20:48:22;23.93;;;14.40;;
6862;SDS011;3470;48.738;9.616;2023-12-04T20:50:48;18.20;;;13.23;;
6862;SDS011;3470;48.738;9.616;2023-12-04T20:53:15;21.17;;;14.93;;
6862;SDS011;3470;48.738;9.616;2023-12-04T20:55:41;22.90;;;15.03;;
6862;SDS011;3470;48.738;9.616;2023-12-04T20:58:06;23.43;;;14.27;;
6862;SDS011;3470;48.738;9.616;2023-12-04T21:00:32;21.13;;;14.07;;
6862;SDS011;3470;48.738;9.616;2023-12-04T21:02:59;22.93;;;15.00;;
6862;SDS011;3470;48.738;9.616;2023-12-04T21:05:29;19.53;;;13.10;;
6862;SDS011;3470;48.738;9.616;2023-12-04T21:07:55;20.77;;;13.80;;
6862;SDS011;3470;48.738;9.616;2023-12-04T21:10:20;21.07;;;13.37;;
6862;SDS011;3470;48.738;9.616;2023-12-04T21:12:47;17.47;;;12.80;;
6862;SDS011;3470;48.738;9.616;2023-12-04T21:15:12;20.20;;;14.20;;
6862;SDS011;3470;48.738;9.616;2023-12-04T21:17:38;20.40;;;14.37;;
6862;SDS011;3470;48.738;9.616;2023-12-04T21:20:04;21.43;;;14.67;;
6862;SDS011;3470;48.738;9.616;2023-12-04T21:22:31;22.07;;;14.60;;
6862;SDS011;3470;48.738;9.616;2023-12-04T21:24:57;26.07;;;15.77;;
6862;SDS011;3470;48.738;9.616;2023-12-04T21:27:22;29.57;;;16.23;;
6862;SDS011;3470;48.738;9.616;2023-12-04T21:29:48;28.53;;;16.87;;
6862;SDS011;3470;48.738;9.616;2023-12-04T21:32:14;35.33;;;18.30;;
6862;SDS011;3470;48.738;9.616;2023-12-04T21:34:39;21.73;;;14.10;;
6862;SDS011;3470;48.738;9.616;2023-12-04T21:37:05;20.30;;;14.47;;
6862;SDS011;3470;48.738;9.616;2023-12-04T21:39:33;21.30;;;13.87;;
6862;SDS011;3470;48.738;9.616;2023-12-04T21:41:59;21.33;;;14.37;;
6862;SDS011;3470;48.738;9.616;2023-12-04T21:44:24;21.80;;;14.20;;
6862;SDS011;3470;48.738;9.616;2023-12-04T21:46:50;19.67;;;13.90;;
6862;SDS011;3470;48.738;9.616;2023-12-04T21:49:15;19.73;;;12.80;;
6862;SDS011;3470;48.738;9.616;2023-12-04T21:51:41;20.07;;;13.33;;
6862;SDS011;3470;48.738;9.616;2023-12-04T21:54:06;19.60;;;14.17;;
6862;SDS011;3470;48.738;9.616;2023-12-04T21:56:32;19.10;;;12.70;;
6862;SDS011;3470;48.738;9.616;2023-12-04T21:58:58;18.77;;;14.10;;
6862;SDS011;3470;48.738;9.616;2023-12-04T22:01:23;20.77;;;14.10;;
6862;SDS011;3470;48.738;9.616;2023-12-04T22:03:49;16.53;;;12.97;;
6862;SDS011;3470;48.738;9.616;2023-12-04T22:06:14;20.47;;;13.83;;
6862;SDS011;3470;48.738;9.616;2023-12-04T22:08:41;21.70;;;14.83;;
6862;SDS011;3470;48.738;9.616;2023-12-04T22:11:07;19.03;;;14.30;;
6862;SDS011;3470;48.738;9.616;2023-12-04T22:13:32;20.83;;;14.57;;
6862;SDS011;3470;48.738;9.616;2023-12-04T22:15:58;20.97;;;14.23;;
6862;SDS011;3470;48.738;9.616;2023-12-04T22:18:23;20.43;;;15.20;;
6862;SDS011;3470;48.738;9.616;2023-12-04T22:20:49;20.90;;;14.53;;
6862;SDS011;3470;48.738;9.616;2023-12-04T22:23:15;19.93;;;14.93;;
6862;SDS011;3470;48.738;9.616;2023-12-04T22:25:41;19.57;;;14.70;;
6862;SDS011;3470;48.738;9.616;2023-12-04T22:28:07;19.23;;;13.93;;
6862;SDS011;3470;48.738;9.616;2023-12-04T22:30:33;17.93;;;13.20;;
6862;SDS011;3470;48.738;9.616;2023-12-04T22:32:58;16.83;;;12.37;;
6862;SDS011;3470;48.738;9.616;2023-12-04T22:35:24;18.40;;;12.97;;
6862;SDS011;3470;48.738;9.616;2023-12-04T22:37:50;18.83;;;12.50;;
6862;SDS011;3470;48.738;9.616;2023-12-04T22:40:15;16.73;;;11.73;;
6862;SDS011;3470;48.738;9.616;2023-12-04T22:42:41;15.73;;;11.53;;
6862;SDS011;3470;48.738;9.616;2023-12-04T22:45:07;16.57;;;12.10;;
6862;SDS011;3470;48.738;9.616;2023-12-04T22:47:37;16.67;;;11.87;;
6862;SDS011;3470;48.738;9.616;2023-12-04T22:50:02;16.10;;;11.37;;
6862;SDS011;3470;48.738;9.616;2023-12-04T22:52:28;16.90;;;11.13;;
6862;SDS011;3470;48.738;9.616;2023-12-04T22:54:55;15.07;;;11.43;;
6862;SDS011;3470;48.738;9.616;2023-12-04T22:57:20;15.23;;;11.17;;
6862;SDS011;3470;48.738;9.616;2023-12-04T22:59:46;15.37;;;10.67;;
6862;SDS011;3470;48.738;9.616;2023-12-04T23:02:11;16.23;;;11.57;;
6862;SDS011;3470;48.738;9.616;2023-12-04T23:04:37;14.90;;;11.07;;
6862;SDS011;3470;48.738;9.616;2023-12-04T23:07:03;17.30;;;11.03;;
6862;SDS011;3470;48.738;9.616;2023-12-04T23:09:28;14.73;;;11.10;;
6862;SDS011;3470;48.738;9.616;2023-12-04T23:11:54;13.73;;;10.63;;
6862;SDS011;3470;48.738;9.616;2023-12-04T23:14:20;13.80;;;10.30;;
6862;SDS011;3470;48.738;9.616;2023-12-04T23:16:46;17.87;;;12.00;;
6862;SDS011;3470;48.738;9.616;2023-12-04T23:19:12;16.10;;;11.73;;
6862;SDS011;3470;48.738;9.616;2023-12-04T23:21:37;17.33;;;12.23;;
6862;SDS011;3470;48.738;9.616;2023-12-04T23:24:03;16.87;;;10.80;;
6862;SDS011;3470;48.738;9.616;2023-12-04T23:26:30;18.17;;;12.47;;
6862;SDS011;3470;48.738;9.616;2023-12-04T23:28:56;16.17;;;11.37;;
6862;SDS011;3470;48.738;9.616;2023-12-04T23:31:21;16.73;;;11.37;;
6862;SDS011;3470;48.738;9.616;2023-12-04T23:33:47;17.87;;;11.20;;
6862;SDS011;3470;48.738;9.616;2023-12-04T23:36:13;14.03;;;11.10;;
6862;SDS011;3470;48.738;9.616;2023-12-04T23:38:39;12.70;;;10.23;;
6862;SDS011;3470;48.738;9.616;2023-12-04T23:41:04;15.53;;;11.00;;
6862;SDS011;3470;48.738;9.616;2023-12-04T23:43:30;14.33;;;10.73;;
6862;SDS011;3470;48.738;9.616;2023-12-04T23:45:56;13.43;;;11.33;;
6862;SDS011;3470;48.738;9.616;2023-12-04T23:48:21;15.33;;;11.10;;
6862;SDS011;3470;48.738;9.616;2023-12-04T23:50:48;14.47;;;9.67;;
6862;SDS011;3470;48.738;9.616;2023-12-04T23:53:13;13.57;;;10.20;;
6862;SDS011;3470;48.738;9.616;2023-12-04T23:55:39;11.10;;;9.10;;
6862;SDS011;3470;48.738;9.616;2023-12-04T23:58:04;13.97;;;9.93;;
